createdAt,value
2023-01-12T00:02:22.447Z,6.74
2023-01-12T00:04:50.766Z,6.70
2023-01-12T00:07:20.369Z,6.74
2023-01-12T00:09:50.114Z,6.69
2023-01-12T00:12:18.221Z,6.64
2023-01-12T00:14:46.346Z,6.65
2023-01-12T00:17:17.284Z,6.61
2023-01-12T00:19:45.370Z,6.61
2023-01-12T00:22:17.931Z,6.57
2023-01-12T00:24:49.643Z,6.59
2023-01-12T00:27:21.109Z,6.61
2023-01-12T00:29:49.494Z,6.58
2023-01-12T00:32:19.266Z,6.54
2023-01-12T00:34:47.742Z,6.54
2023-01-12T00:37:16.047Z,6.51
2023-01-12T00:40:00.900Z,6.55
2023-01-12T00:42:49.158Z,6.52
2023-01-12T00:45:23.251Z,6.51
2023-01-12T00:47:51.458Z,6.50
2023-01-12T00:50:19.896Z,6.52
2023-01-12T00:52:48.188Z,6.56
2023-01-12T00:55:16.507Z,6.53
2023-01-12T00:57:46.007Z,6.49
2023-01-12T01:00:15.168Z,6.52
2023-01-12T01:02:43.284Z,6.51
2023-01-12T01:05:11.559Z,6.54
2023-01-12T01:07:39.809Z,6.55
2023-01-12T01:10:09.030Z,6.52
2023-01-12T01:12:38.440Z,6.54
2023-01-12T01:15:09.200Z,6.54
2023-01-12T01:17:37.338Z,6.51
2023-01-12T01:20:06.262Z,6.54
2023-01-12T01:22:34.428Z,6.51
2023-01-12T01:25:02.517Z,6.54
2023-01-12T01:27:30.658Z,6.52
2023-01-12T01:29:58.805Z,6.52
2023-01-12T01:32:28.312Z,6.52
2023-01-12T01:34:56.559Z,6.52
2023-01-12T01:37:24.685Z,6.56
2023-01-12T01:39:52.756Z,6.57
2023-01-12T01:42:29.562Z,6.58
2023-01-12T01:45:00.157Z,6.60
2023-01-12T01:47:36.135Z,6.64
2023-01-12T01:50:07.814Z,6.65
2023-01-12T01:52:39.511Z,6.61
2023-01-12T01:55:12.805Z,6.66
2023-01-12T01:57:46.011Z,6.57
2023-01-12T02:00:15.185Z,6.64
2023-01-12T02:02:46.652Z,6.64
2023-01-12T02:05:18.827Z,6.62
2023-01-12T02:07:47.262Z,6.59
2023-01-12T02:10:16.139Z,6.62
2023-01-12T02:13:02.182Z,6.62
2023-01-12T02:15:54.069Z,6.59
2023-01-12T02:18:29.804Z,6.60
2023-01-12T02:21:07.801Z,6.57
2023-01-12T02:24:28.942Z,6.64
2023-01-12T02:27:33.089Z,6.57
2023-01-12T02:30:35.020Z,6.55
2023-01-12T02:33:19.496Z,6.54
2023-01-12T02:35:58.918Z,6.54
2023-01-12T02:38:36.300Z,6.52
2023-01-12T02:41:12.755Z,6.57
2023-01-12T02:43:42.294Z,6.57
2023-01-12T02:46:14.650Z,6.49
2023-01-12T02:48:50.125Z,6.54
2023-01-12T02:51:24.740Z,6.55
2023-01-12T02:53:55.776Z,6.54
2023-01-12T02:56:31.735Z,6.56
2023-01-12T02:59:04.565Z,6.54
2023-01-12T03:01:34.209Z,6.54
2023-01-12T03:04:07.368Z,6.50
2023-01-12T03:06:41.685Z,6.48
2023-01-12T03:09:10.223Z,6.46
2023-01-12T03:11:41.968Z,6.45
2023-01-12T03:14:12.198Z,6.42
2023-01-12T03:16:43.355Z,6.41
2023-01-12T03:19:17.191Z,6.42
2023-01-12T03:21:51.957Z,6.47
2023-01-12T03:24:24.637Z,6.45
2023-01-12T03:26:57.426Z,6.50
2023-01-12T03:29:31.179Z,6.41
2023-01-12T03:31:59.853Z,6.42
2023-01-12T03:34:29.959Z,6.37
2023-01-12T03:37:04.554Z,6.44
2023-01-12T03:39:43.603Z,6.41
2023-01-12T03:42:18.071Z,6.41
2023-01-12T03:44:57.068Z,6.38
2023-01-12T03:47:29.852Z,6.36
2023-01-12T03:50:02.821Z,6.41
2023-01-12T03:52:32.630Z,6.37
2023-01-12T03:55:03.017Z,6.43
2023-01-12T03:57:31.773Z,6.37
2023-01-12T04:00:03.141Z,6.39
2023-01-12T04:02:31.352Z,6.38
2023-01-12T04:05:00.888Z,6.38
2023-01-12T04:07:30.168Z,6.38
2023-01-12T04:09:58.463Z,6.33
2023-01-12T04:12:26.577Z,6.35
2023-01-12T04:14:54.778Z,6.34
2023-01-12T04:17:25.394Z,6.35
2023-01-12T04:19:53.725Z,6.39
2023-01-12T04:22:49.234Z,6.36
2023-01-12T04:25:19.613Z,6.34
2023-01-12T04:27:49.505Z,6.36
2023-01-12T04:30:20.332Z,6.32
2023-01-12T04:32:48.456Z,6.32
2023-01-12T04:35:17.693Z,6.36
2023-01-12T04:37:47.698Z,6.33
2023-01-12T04:40:18.146Z,6.37
2023-01-12T04:43:07.363Z,6.32
2023-01-12T04:45:37.170Z,6.34
2023-01-12T04:48:07.517Z,6.31
2023-01-12T04:50:36.279Z,6.32
2023-01-12T04:53:07.240Z,6.30
2023-01-12T04:55:38.004Z,6.32
2023-01-12T04:58:06.323Z,6.27
2023-01-12T05:00:34.752Z,6.32
2023-01-12T05:03:03.612Z,6.26
2023-01-12T05:05:34.167Z,6.32
2023-01-12T05:08:20.779Z,6.25
2023-01-12T05:10:52.472Z,6.24
2023-01-12T05:13:20.756Z,6.26
2023-01-12T05:15:48.967Z,6.25
2023-01-12T05:18:17.207Z,6.21
2023-01-12T05:20:45.876Z,6.27
2023-01-12T05:23:14.033Z,6.26
2023-01-12T05:25:42.234Z,6.19
2023-01-12T05:28:11.893Z,6.18
2023-01-12T05:30:40.082Z,6.14
2023-01-12T05:33:08.370Z,6.11
2023-01-12T05:35:39.337Z,6.06
2023-01-12T05:38:08.119Z,6.02
2023-01-12T05:40:36.335Z,6.05
2023-01-12T05:43:21.807Z,5.97
2023-01-12T05:45:51.366Z,5.95
2023-01-12T05:48:19.429Z,5.94
2023-01-12T05:50:47.597Z,5.92
2023-01-12T05:53:15.822Z,5.90
2023-01-12T05:55:43.920Z,5.91
2023-01-12T05:58:12.063Z,5.84
2023-01-12T06:00:40.259Z,5.83
2023-01-12T06:03:09.728Z,5.85
2023-01-12T06:05:37.838Z,5.81
2023-01-12T06:08:06.327Z,5.84
2023-01-12T06:10:37.045Z,5.81
2023-01-12T06:13:22.586Z,5.78
2023-01-12T06:15:50.903Z,5.81
2023-01-12T06:18:22.734Z,5.80
2023-01-12T06:20:50.815Z,5.82
2023-01-12T06:23:19.023Z,5.80
2023-01-12T06:25:47.197Z,5.77
2023-01-12T06:28:16.456Z,5.78
2023-01-12T06:30:44.617Z,5.80
2023-01-12T06:33:13.470Z,5.81
2023-01-12T06:35:49.737Z,5.77
2023-01-12T06:38:19.062Z,5.74
2023-01-12T06:40:47.657Z,5.78
2023-01-12T06:43:14.749Z,5.75
2023-01-12T06:45:42.989Z,5.59
2023-01-12T06:48:11.455Z,5.44
2023-01-12T06:50:39.682Z,5.44
2023-01-12T06:53:09.515Z,5.37
2023-01-12T06:55:37.623Z,5.31
2023-01-12T06:58:05.860Z,5.22
2023-01-12T07:00:34.118Z,5.25
2023-01-12T07:03:02.240Z,5.30
2023-01-12T07:05:30.387Z,5.19
2023-01-12T07:08:00.512Z,5.14
2023-01-12T07:10:32.634Z,5.10
2023-01-12T07:13:01.567Z,5.02
2023-01-12T07:15:30.083Z,4.96
2023-01-12T07:17:58.532Z,4.97
2023-01-12T07:20:28.736Z,5.00
2023-01-12T07:22:57.394Z,4.92
2023-01-12T07:25:25.944Z,4.83
2023-01-12T07:27:57.428Z,4.81
2023-01-12T07:30:27.007Z,4.82
2023-01-12T07:32:55.412Z,4.76
2023-01-12T07:35:25.279Z,4.81
2023-01-12T07:37:55.013Z,4.72
2023-01-12T07:40:23.200Z,4.68
2023-01-12T07:43:01.037Z,4.66
2023-01-12T07:45:30.073Z,4.66
2023-01-12T07:47:58.941Z,4.66
2023-01-12T07:50:29.663Z,4.67
2023-01-12T07:53:02.445Z,4.72
2023-01-12T07:55:31.106Z,4.72
2023-01-12T07:58:03.136Z,4.69
2023-01-12T08:00:32.396Z,4.68
2023-01-12T08:03:05.665Z,4.67
2023-01-12T08:05:34.287Z,4.62
2023-01-12T08:08:03.704Z,4.52
2023-01-12T08:10:32.012Z,4.42
2023-01-12T08:13:01.736Z,4.33
2023-01-12T08:15:36.868Z,4.34
2023-01-12T08:18:09.143Z,4.34
2023-01-12T08:20:39.562Z,4.28
2023-01-12T08:23:12.951Z,4.23
2023-01-12T08:25:46.859Z,4.26
2023-01-12T08:28:21.006Z,4.21
2023-01-12T08:30:50.332Z,4.12
2023-01-12T08:33:18.708Z,4.05
2023-01-12T08:35:48.248Z,4.00
2023-01-12T08:38:16.729Z,3.89
2023-01-12T08:41:10.668Z,3.89
2023-01-12T08:43:57.620Z,3.94
2023-01-12T08:46:25.830Z,3.94
2023-01-12T08:48:54.299Z,3.97
2023-01-12T08:51:22.550Z,3.96
2023-01-12T08:53:50.871Z,3.91
2023-01-12T08:56:19.055Z,3.97
2023-01-12T08:58:48.676Z,3.89
2023-01-12T09:01:17.486Z,3.88
2023-01-12T09:03:45.838Z,3.89
2023-01-12T09:06:16.262Z,4.00
2023-01-12T09:08:45.447Z,4.00
2023-01-12T09:11:15.719Z,3.81
2023-01-12T09:13:43.958Z,3.62
2023-01-12T09:16:17.016Z,3.62
2023-01-12T09:18:45.725Z,3.69
2023-01-12T09:21:16.329Z,3.66
2023-01-12T09:23:46.119Z,3.55
2023-01-12T09:26:16.881Z,3.53
2023-01-12T09:28:46.005Z,3.68
2023-01-12T09:31:18.980Z,3.70
2023-01-12T09:33:51.471Z,3.61
2023-01-12T09:36:21.422Z,3.54
2023-01-12T09:38:50.214Z,3.59
2023-01-12T09:41:40.685Z,3.57
2023-01-12T09:44:36.533Z,3.52
2023-01-12T09:47:10.704Z,3.40
2023-01-12T09:49:45.117Z,3.48
2023-01-12T09:52:18.534Z,3.53
2023-01-12T09:54:49.789Z,3.60
2023-01-12T09:57:46.760Z,3.40
2023-01-12T10:00:17.195Z,3.30
2023-01-12T10:02:50.290Z,3.27
2023-01-12T10:05:38.941Z,3.31
2023-01-12T10:08:15.951Z,3.27
2023-01-12T10:10:57.310Z,3.28
2023-01-12T10:13:32.064Z,3.30
2023-01-12T10:16:06.328Z,3.31
2023-01-12T10:18:44.850Z,3.36
2023-01-12T10:21:15.811Z,3.33
2023-01-12T10:23:44.390Z,3.29
2023-01-12T10:26:22.251Z,3.29
2023-01-12T10:28:53.616Z,3.23
2023-01-12T10:31:28.187Z,3.19
2023-01-12T10:34:08.433Z,3.30
2023-01-12T10:36:38.342Z,3.09
2023-01-12T10:39:07.658Z,3.12
2023-01-12T10:41:39.027Z,3.16
2023-01-12T10:44:15.059Z,3.21
2023-01-12T10:46:43.780Z,3.32
2023-01-12T10:49:21.574Z,3.15
2023-01-12T10:51:56.402Z,3.09
2023-01-12T10:54:27.108Z,3.07
2023-01-12T10:57:00.017Z,2.97
2023-01-12T10:59:31.661Z,2.96
2023-01-12T11:02:16.686Z,3.11
2023-01-12T11:04:49.741Z,3.09
2023-01-12T11:07:22.016Z,3.14
2023-01-12T11:09:50.390Z,3.06
2023-01-12T11:12:24.488Z,3.08
2023-01-12T11:15:01.451Z,2.96
2023-01-12T11:17:48.858Z,2.93
2023-01-12T11:20:24.864Z,3.00
2023-01-12T11:22:56.228Z,2.88
2023-01-12T11:25:26.011Z,2.75
2023-01-12T11:27:58.285Z,2.70
2023-01-12T11:30:32.383Z,2.57
2023-01-12T11:33:08.985Z,2.55
2023-01-12T11:35:42.848Z,2.43
2023-01-12T11:38:14.865Z,2.34
2023-01-12T11:40:45.335Z,2.36
2023-01-12T11:43:45.242Z,2.33
2023-01-12T11:46:21.641Z,2.24
2023-01-12T11:48:57.205Z,2.19
2023-01-12T11:51:27.139Z,2.25
2023-01-12T11:53:55.484Z,2.21
2023-01-12T11:57:09.855Z,2.23
2023-01-12T11:59:46.130Z,2.17
2023-01-12T12:02:28.881Z,2.08
2023-01-12T12:05:06.792Z,2.09
2023-01-12T12:07:55.422Z,2.20
2023-01-12T12:10:26.219Z,2.18
2023-01-12T12:13:18.272Z,2.12
2023-01-12T12:15:56.162Z,2.05
2023-01-12T12:18:39.692Z,2.23
2023-01-12T12:21:20.430Z,2.19
2023-01-12T12:24:01.668Z,2.18
2023-01-12T12:26:34.416Z,2.17
2023-01-12T12:29:18.969Z,2.22
2023-01-12T12:32:13.197Z,2.24
2023-01-12T12:35:01.102Z,2.28
2023-01-12T12:37:38.758Z,2.30
2023-01-12T12:40:20.292Z,2.33
2023-01-12T12:43:19.358Z,2.23
2023-01-12T12:45:57.309Z,2.33
2023-01-12T12:48:35.169Z,2.21
2023-01-12T12:51:07.076Z,2.34
2023-01-12T12:53:37.271Z,2.32
2023-01-12T12:56:09.148Z,2.28
2023-01-12T12:58:42.905Z,2.32
2023-01-12T13:01:57.474Z,2.16
2023-01-12T13:05:00.326Z,2.25
2023-01-12T13:07:29.654Z,2.30
2023-01-12T13:10:29.737Z,2.20
2023-01-12T13:13:02.884Z,2.28
2023-01-12T13:15:37.212Z,2.25
2023-01-12T13:18:07.209Z,2.19
2023-01-12T13:20:55.775Z,2.15
2023-01-12T13:23:54.376Z,2.14
2023-01-12T13:26:41.776Z,2.12
2023-01-12T13:29:44.443Z,2.04
2023-01-12T13:32:35.449Z,1.99
2023-01-12T13:35:03.634Z,2.01
2023-01-12T13:37:49.856Z,1.99
2023-01-12T13:40:21.631Z,1.96
2023-01-12T13:43:08.892Z,2.00
2023-01-12T13:45:38.809Z,1.98
2023-01-12T13:48:08.363Z,1.90
2023-01-12T13:50:37.595Z,1.80
2023-01-12T13:53:06.245Z,1.75
2023-01-12T13:55:37.201Z,1.72
2023-01-12T13:58:08.281Z,1.72
2023-01-12T14:00:36.536Z,1.70
2023-01-12T14:03:06.409Z,1.74
2023-01-12T14:05:45.248Z,1.73
2023-01-12T14:08:51.358Z,1.75
2023-01-12T14:11:44.314Z,1.69
2023-01-12T14:14:45.129Z,1.69
2023-01-12T14:17:38.985Z,1.62
2023-01-12T14:20:16.393Z,1.77
2023-01-12T14:22:46.053Z,1.79
2023-01-12T14:25:17.005Z,1.71
2023-01-12T14:27:55.389Z,1.74
2023-01-12T14:30:27.049Z,1.69
2023-01-12T14:32:56.012Z,1.70
2023-01-12T14:35:26.871Z,1.66
2023-01-12T14:37:59.119Z,1.72
2023-01-12T14:40:35.135Z,1.64
2023-01-12T14:43:21.337Z,1.67
2023-01-12T14:46:22.988Z,1.74
2023-01-12T14:48:59.861Z,1.77
2023-01-12T14:51:36.115Z,1.76
2023-01-12T14:54:18.831Z,1.74
2023-01-12T14:56:52.267Z,1.78
2023-01-12T14:59:33.597Z,1.73
2023-01-12T15:02:32.692Z,1.76
2023-01-12T15:05:04.470Z,1.86
2023-01-12T15:07:37.225Z,1.90
2023-01-12T15:10:27.415Z,1.91
2023-01-12T15:12:58.078Z,1.81
2023-01-12T15:15:27.701Z,1.80
2023-01-12T15:18:23.216Z,1.84
2023-01-12T15:21:08.555Z,1.82
2023-01-12T15:23:55.959Z,1.85
2023-01-12T15:26:24.031Z,1.95
2023-01-12T15:28:52.301Z,1.93
2023-01-12T15:31:33.772Z,2.00
2023-01-12T15:34:02.970Z,1.96
2023-01-12T15:36:31.112Z,2.03
2023-01-12T15:39:00.648Z,1.97
2023-01-12T15:41:53.157Z,1.93
2023-01-12T15:44:22.822Z,2.01
2023-01-12T15:46:51.278Z,2.06
2023-01-12T15:49:19.361Z,2.04
2023-01-12T15:51:50.293Z,2.14
2023-01-12T15:54:21.437Z,2.14
2023-01-12T15:56:49.685Z,2.06
2023-01-12T15:59:18.025Z,2.00
2023-01-12T16:01:49.180Z,1.98
2023-01-12T16:07:07.316Z,1.90
2023-01-12T16:09:37.089Z,1.88
2023-01-12T16:12:05.892Z,1.87
2023-01-12T16:14:33.969Z,1.84
2023-01-12T16:17:02.096Z,1.81
2023-01-12T16:19:30.266Z,1.80
2023-01-12T16:21:58.498Z,1.82
2023-01-12T16:24:27.013Z,1.83
2023-01-12T16:26:56.581Z,1.81
2023-01-12T16:29:24.836Z,1.76
2023-01-12T16:31:53.008Z,1.86
2023-01-12T16:34:23.670Z,1.86
2023-01-12T16:36:51.847Z,1.85
2023-01-12T16:39:20.227Z,1.92
2023-01-12T16:41:49.018Z,1.89
2023-01-12T16:44:19.067Z,1.89
2023-01-12T16:46:48.785Z,1.91
2023-01-12T16:49:16.861Z,1.87
2023-01-12T16:51:46.294Z,1.86
2023-01-12T16:54:14.479Z,1.94
2023-01-12T16:56:43.783Z,1.95
2023-01-12T16:59:11.903Z,1.98
2023-01-12T17:01:41.881Z,2.00
2023-01-12T17:04:10.803Z,2.07
2023-01-12T17:06:41.022Z,2.07
2023-01-12T17:09:09.347Z,2.09
2023-01-12T17:11:39.693Z,2.18
2023-01-12T17:27:32.348Z,2.13
2023-01-12T17:30:00.690Z,2.08
2023-01-12T17:32:29.076Z,2.04
2023-01-12T17:34:57.500Z,2.09
2023-01-12T17:37:25.713Z,2.07
2023-01-12T17:39:53.865Z,1.99
2023-01-12T17:42:39.572Z,2.05
2023-01-12T17:45:10.436Z,2.06
2023-01-12T17:47:38.813Z,2.04
2023-01-12T17:50:07.894Z,2.10
2023-01-12T17:52:36.158Z,2.12
2023-01-12T17:55:05.214Z,2.04
2023-01-12T17:57:36.079Z,1.97
2023-01-12T18:00:06.090Z,2.08
2023-01-12T18:02:35.933Z,1.89
2023-01-12T18:05:04.334Z,1.85
2023-01-12T18:07:33.191Z,2.01
2023-01-12T18:10:01.406Z,2.01
2023-01-12T18:12:30.303Z,1.99
2023-01-12T18:14:59.115Z,1.98
2023-01-12T18:17:29.698Z,1.99
2023-01-12T18:19:59.961Z,2.00
2023-01-12T18:22:28.311Z,2.05
2023-01-12T18:24:56.766Z,2.02
2023-01-12T18:27:25.421Z,2.04
2023-01-12T18:29:53.752Z,2.04
2023-01-12T18:32:21.996Z,2.01
2023-01-12T18:34:50.399Z,1.91
2023-01-12T18:37:19.916Z,2.00
2023-01-12T18:39:50.414Z,2.05
2023-01-12T18:42:37.434Z,1.93
2023-01-12T18:45:06.143Z,1.94
2023-01-12T18:47:51.794Z,1.91
2023-01-12T18:50:43.227Z,1.99
2023-01-12T18:53:25.657Z,1.95
2023-01-12T18:55:57.373Z,2.01
2023-01-12T18:58:27.770Z,2.00
2023-01-12T19:00:56.557Z,2.00
2023-01-12T19:03:25.588Z,1.94
2023-01-12T19:06:02.256Z,1.99
2023-01-12T19:08:49.395Z,1.95
2023-01-12T19:11:18.645Z,1.94
2023-01-12T19:14:04.132Z,2.02
2023-01-12T19:16:50.079Z,1.97
2023-01-12T19:19:22.817Z,1.92
2023-01-12T19:22:09.664Z,1.92
2023-01-12T19:24:57.305Z,2.09
2023-01-12T19:27:42.956Z,2.11
2023-01-12T19:30:12.805Z,2.06
2023-01-12T19:32:41.561Z,2.04
2023-01-12T19:35:11.893Z,1.99
2023-01-12T19:37:40.399Z,2.03
2023-01-12T19:40:18.108Z,2.02
2023-01-12T19:43:04.009Z,2.03
2023-01-12T19:45:32.404Z,2.02
2023-01-12T19:48:00.841Z,2.16
2023-01-12T19:50:28.968Z,2.02
2023-01-12T19:52:57.150Z,2.12
2023-01-12T19:55:26.755Z,2.03
2023-01-12T19:57:55.045Z,2.00
2023-01-12T20:00:24.779Z,1.88
2023-01-12T20:02:53.452Z,1.87
2023-01-12T20:05:24.738Z,1.97
2023-01-12T20:07:54.255Z,1.89
2023-01-12T20:10:23.922Z,1.87
2023-01-12T20:12:54.832Z,1.79
2023-01-12T20:15:23.010Z,1.72
2023-01-12T20:17:51.635Z,1.79
2023-01-12T20:20:20.238Z,1.76
2023-01-12T20:22:51.110Z,1.78
2023-01-12T20:25:19.917Z,1.73
2023-01-12T20:27:49.372Z,1.73
2023-01-12T20:30:31.944Z,1.80
2023-01-12T20:33:07.353Z,1.72
2023-01-12T20:35:38.316Z,1.75
2023-01-12T20:38:13.342Z,1.70
2023-01-12T20:40:41.612Z,1.68
2023-01-12T20:43:09.711Z,1.68
2023-01-12T20:45:42.084Z,1.73
2023-01-12T20:48:13.218Z,1.68
2023-01-12T20:50:44.473Z,1.67
2023-01-12T20:53:13.229Z,1.69
2023-01-12T20:55:45.897Z,1.61
2023-01-12T20:58:14.651Z,1.66
2023-01-12T21:00:45.086Z,1.63
2023-01-12T21:03:13.821Z,1.56
2023-01-12T21:05:43.353Z,1.64
2023-01-12T21:08:12.335Z,1.65
2023-01-12T21:10:41.919Z,1.57
2023-01-12T21:13:10.105Z,1.56
2023-01-12T21:15:38.208Z,1.56
2023-01-12T21:18:07.894Z,1.65
2023-01-12T21:20:36.477Z,1.59
2023-01-12T21:23:05.808Z,1.66
2023-01-12T21:25:33.988Z,1.58
2023-01-12T21:28:02.140Z,1.67
2023-01-12T21:30:30.428Z,1.56
2023-01-12T21:32:59.386Z,1.61
2023-01-12T21:35:28.946Z,1.64
2023-01-12T21:37:58.036Z,1.66
2023-01-12T21:40:26.389Z,1.66
2023-01-12T21:43:09.767Z,1.64
2023-01-12T21:45:38.738Z,1.59
2023-01-12T21:48:07.844Z,1.57
2023-01-12T21:50:37.911Z,1.64
2023-01-12T21:53:07.988Z,1.63
2023-01-12T21:55:36.693Z,1.56
2023-01-12T21:58:04.987Z,1.64
2023-01-12T22:00:33.204Z,1.63
2023-01-12T22:03:01.354Z,1.66
2023-01-12T22:05:29.642Z,1.57
2023-01-12T22:08:00.776Z,1.59
2023-01-12T22:10:31.908Z,1.61
2023-01-12T22:13:14.466Z,1.70
2023-01-12T22:15:43.180Z,1.58
2023-01-12T22:18:11.738Z,1.53
2023-01-12T22:20:40.159Z,1.51
2023-01-12T22:23:13.057Z,1.45
2023-01-12T22:25:41.350Z,1.49
2023-01-12T22:28:09.488Z,1.49
2023-01-12T22:30:37.615Z,1.53
2023-01-12T22:33:05.907Z,1.57
2023-01-12T22:35:34.862Z,1.58
2023-01-12T22:38:03.057Z,1.56
2023-01-12T22:40:32.747Z,1.58
2023-01-12T22:43:18.741Z,1.52
2023-01-12T22:45:50.739Z,1.56
2023-01-12T22:48:20.760Z,1.50
2023-01-12T22:50:49.953Z,1.56
2023-01-12T22:53:18.296Z,1.58
2023-01-12T22:55:48.075Z,1.46
2023-01-12T22:58:16.293Z,1.45
2023-01-12T23:00:45.702Z,1.37
2023-01-12T23:03:14.873Z,1.41
2023-01-12T23:05:47.838Z,1.40
2023-01-12T23:08:17.586Z,1.38
2023-01-12T23:10:47.546Z,1.47
2023-01-12T23:13:17.861Z,1.36
2023-01-12T23:15:53.392Z,1.41
2023-01-12T23:18:25.276Z,1.40
2023-01-12T23:20:54.381Z,1.50
2023-01-12T23:23:22.562Z,1.53
2023-01-12T23:25:52.064Z,1.50
2023-01-12T23:28:20.243Z,1.51
2023-01-12T23:30:48.406Z,1.55
2023-01-12T23:33:16.516Z,1.52
2023-01-12T23:35:44.652Z,1.50
2023-01-12T23:38:16.436Z,1.56
2023-01-12T23:40:44.596Z,1.59
2023-01-12T23:43:14.103Z,1.47
2023-01-12T23:45:42.273Z,1.49
2023-01-12T23:48:10.423Z,1.51
2023-01-12T23:50:38.476Z,1.46
2023-01-12T23:53:06.549Z,1.55
2023-01-12T23:55:34.640Z,1.41
2023-01-12T23:58:02.715Z,1.48
